sensor_id;sensor_type;location;lat;lon;timestamp;P1;durP1;ratioP1;P2;durP2;ratioP2
14241;SDS011;7205;50.864;12.766;2022-07-06T00:01:14;2.63;;;2.03;;
14241;SDS011;7205;50.864;12.766;2022-07-06T00:14:08;2.40;;;2.20;;
14241;SDS011;7205;50.864;12.766;2022-07-06T00:26:03;3.57;;;2.80;;
14241;SDS011;7205;50.864;12.766;2022-07-06T00:28:39;2.50;;;2.10;;
14241;SDS011;7205;50.864;12.766;2022-07-06T00:31:16;2.60;;;2.40;;
14241;SDS011;7205;50.864;12.766;2022-07-06T00:33:43;3.47;;;2.53;;
14241;SDS011;7205;50.864;12.766;2022-07-06T00:36:10;2.77;;;2.50;;
14241;SDS011;7205;50.864;12.766;2022-07-06T00:38:39;3.47;;;2.97;;
14241;SDS011;7205;50.864;12.766;2022-07-06T00:41:06;2.87;;;2.73;;
14241;SDS011;7205;50.864;12.766;2022-07-06T00:43:46;3.40;;;3.00;;
14241;SDS011;7205;50.864;12.766;2022-07-06T00:46:14;3.33;;;3.03;;
14241;SDS011;7205;50.864;12.766;2022-07-06T00:48:41;3.17;;;2.80;;
14241;SDS011;7205;50.864;12.766;2022-07-06T00:51:08;2.87;;;2.70;;
14241;SDS011;7205;50.864;12.766;2022-07-06T00:53:38;2.90;;;2.70;;
14241;SDS011;7205;50.864;12.766;2022-07-06T00:56:06;3.10;;;2.73;;
14241;SDS011;7205;50.864;12.766;2022-07-06T00:58:33;3.00;;;2.80;;
14241;SDS011;7205;50.864;12.766;2022-07-06T01:01:00;3.23;;;2.97;;
14241;SDS011;7205;50.864;12.766;2022-07-06T01:03:27;3.00;;;2.80;;
14241;SDS011;7205;50.864;12.766;2022-07-06T01:05:54;2.80;;;2.60;;
14241;SDS011;7205;50.864;12.766;2022-07-06T01:08:21;3.03;;;2.83;;
14241;SDS011;7205;50.864;12.766;2022-07-06T01:10:50;2.97;;;2.77;;
14241;SDS011;7205;50.864;12.766;2022-07-06T01:13:18;3.00;;;2.80;;
14241;SDS011;7205;50.864;12.766;2022-07-06T01:15:45;3.30;;;3.10;;
14241;SDS011;7205;50.864;12.766;2022-07-06T01:18:12;3.23;;;3.03;;
14241;SDS011;7205;50.864;12.766;2022-07-06T01:20:41;3.00;;;2.70;;
14241;SDS011;7205;50.864;12.766;2022-07-06T01:23:08;3.57;;;3.37;;
14241;SDS011;7205;50.864;12.766;2022-07-06T01:25:35;2.83;;;2.73;;
14241;SDS011;7205;50.864;12.766;2022-07-06T01:28:03;3.30;;;2.97;;
14241;SDS011;7205;50.864;12.766;2022-07-06T01:30:30;2.90;;;2.80;;
14241;SDS011;7205;50.864;12.766;2022-07-06T01:32:58;2.67;;;2.57;;
14241;SDS011;7205;50.864;12.766;2022-07-06T01:35:25;2.93;;;2.80;;
14241;SDS011;7205;50.864;12.766;2022-07-06T01:37:57;2.77;;;2.63;;
14241;SDS011;7205;50.864;12.766;2022-07-06T01:40:24;3.30;;;3.00;;
14241;SDS011;7205;50.864;12.766;2022-07-06T01:42:51;3.50;;;2.77;;
14241;SDS011;7205;50.864;12.766;2022-07-06T01:45:18;5.50;;;2.60;;
14241;SDS011;7205;50.864;12.766;2022-07-06T01:47:45;2.50;;;2.30;;
14241;SDS011;7205;50.864;12.766;2022-07-06T01:50:12;2.80;;;2.60;;
14241;SDS011;7205;50.864;12.766;2022-07-06T01:52:43;2.50;;;2.40;;
14241;SDS011;7205;50.864;12.766;2022-07-06T01:55:12;3.03;;;2.60;;
14241;SDS011;7205;50.864;12.766;2022-07-06T01:57:39;3.07;;;2.80;;
14241;SDS011;7205;50.864;12.766;2022-07-06T02:00:08;2.63;;;2.43;;
14241;SDS011;7205;50.864;12.766;2022-07-06T02:02:38;2.60;;;2.50;;
14241;SDS011;7205;50.864;12.766;2022-07-06T02:05:10;2.70;;;2.60;;
14241;SDS011;7205;50.864;12.766;2022-07-06T02:07:37;4.03;;;2.90;;
14241;SDS011;7205;50.864;12.766;2022-07-06T02:10:06;3.47;;;3.20;;
14241;SDS011;7205;50.864;12.766;2022-07-06T02:12:35;3.27;;;3.07;;
14241;SDS011;7205;50.864;12.766;2022-07-06T02:15:02;3.13;;;2.93;;
14241;SDS011;7205;50.864;12.766;2022-07-06T02:17:29;4.43;;;3.30;;
14241;SDS011;7205;50.864;12.766;2022-07-06T02:19:56;3.57;;;3.43;;
14241;SDS011;7205;50.864;12.766;2022-07-06T02:22:23;3.60;;;3.40;;
14241;SDS011;7205;50.864;12.766;2022-07-06T02:24:50;3.80;;;3.60;;
14241;SDS011;7205;50.864;12.766;2022-07-06T02:27:18;3.80;;;3.60;;
14241;SDS011;7205;50.864;12.766;2022-07-06T02:29:46;6.27;;;4.17;;
14241;SDS011;7205;50.864;12.766;2022-07-06T02:32:14;4.23;;;3.93;;
14241;SDS011;7205;50.864;12.766;2022-07-06T02:34:40;4.40;;;4.00;;
14241;SDS011;7205;50.864;12.766;2022-07-06T02:37:07;4.23;;;3.93;;
14241;SDS011;7205;50.864;12.766;2022-07-06T02:39:35;4.20;;;3.90;;
14241;SDS011;7205;50.864;12.766;2022-07-06T02:42:03;5.27;;;4.53;;
14241;SDS011;7205;50.864;12.766;2022-07-06T02:44:31;5.13;;;4.73;;
14241;SDS011;7205;50.864;12.766;2022-07-06T02:46:59;6.33;;;4.97;;
14241;SDS011;7205;50.864;12.766;2022-07-06T02:49:27;5.17;;;4.50;;
14241;SDS011;7205;50.864;12.766;2022-07-06T02:51:54;9.37;;;5.87;;
14241;SDS011;7205;50.864;12.766;2022-07-06T02:54:22;5.20;;;4.70;;
14241;SDS011;7205;50.864;12.766;2022-07-06T02:56:49;5.20;;;4.87;;
14241;SDS011;7205;50.864;12.766;2022-07-06T02:59:18;4.80;;;4.40;;
14241;SDS011;7205;50.864;12.766;2022-07-06T03:01:46;6.53;;;6.03;;
14241;SDS011;7205;50.864;12.766;2022-07-06T03:04:15;6.33;;;5.83;;
14241;SDS011;7205;50.864;12.766;2022-07-06T03:06:43;5.73;;;5.17;;
14241;SDS011;7205;50.864;12.766;2022-07-06T03:09:10;6.00;;;5.13;;
14241;SDS011;7205;50.864;12.766;2022-07-06T03:11:38;6.20;;;5.70;;
14241;SDS011;7205;50.864;12.766;2022-07-06T03:14:05;5.40;;;5.00;;
14241;SDS011;7205;50.864;12.766;2022-07-06T03:16:35;5.20;;;4.90;;
14241;SDS011;7205;50.864;12.766;2022-07-06T03:19:03;5.33;;;4.93;;
14241;SDS011;7205;50.864;12.766;2022-07-06T03:21:32;6.20;;;5.57;;
14241;SDS011;7205;50.864;12.766;2022-07-06T03:24:00;6.13;;;5.20;;
14241;SDS011;7205;50.864;12.766;2022-07-06T03:26:27;6.10;;;5.60;;
14241;SDS011;7205;50.864;12.766;2022-07-06T03:28:54;6.50;;;6.00;;
14241;SDS011;7205;50.864;12.766;2022-07-06T03:31:21;5.73;;;5.23;;
14241;SDS011;7205;50.864;12.766;2022-07-06T03:33:48;5.43;;;4.93;;
14241;SDS011;7205;50.864;12.766;2022-07-06T03:36:16;13.37;;;11.87;;
14241;SDS011;7205;50.864;12.766;2022-07-06T03:38:45;10.73;;;9.73;;
14241;SDS011;7205;50.864;12.766;2022-07-06T03:41:12;4.73;;;4.40;;
14241;SDS011;7205;50.864;12.766;2022-07-06T03:43:40;3.67;;;3.37;;
14241;SDS011;7205;50.864;12.766;2022-07-06T03:46:07;4.47;;;4.13;;
14241;SDS011;7205;50.864;12.766;2022-07-06T03:48:34;14.00;;;12.80;;
14241;SDS011;7205;50.864;12.766;2022-07-06T03:51:07;36.00;;;31.10;;
14241;SDS011;7205;50.864;12.766;2022-07-06T03:53:36;7.57;;;6.90;;
14241;SDS011;7205;50.864;12.766;2022-07-06T03:56:04;3.40;;;3.10;;
14241;SDS011;7205;50.864;12.766;2022-07-06T03:58:50;3.43;;;3.20;;
14241;SDS011;7205;50.864;12.766;2022-07-06T04:01:17;3.37;;;3.07;;
14241;SDS011;7205;50.864;12.766;2022-07-06T04:03:44;3.03;;;2.83;;
14241;SDS011;7205;50.864;12.766;2022-07-06T04:06:12;4.00;;;3.17;;
14241;SDS011;7205;50.864;12.766;2022-07-06T04:08:40;3.67;;;3.47;;
14241;SDS011;7205;50.864;12.766;2022-07-06T04:11:08;4.00;;;3.70;;
14241;SDS011;7205;50.864;12.766;2022-07-06T04:13:36;3.97;;;3.67;;
14241;SDS011;7205;50.864;12.766;2022-07-06T04:16:04;4.07;;;3.53;;
14241;SDS011;7205;50.864;12.766;2022-07-06T04:18:32;3.40;;;3.10;;
14241;SDS011;7205;50.864;12.766;2022-07-06T04:21:00;3.33;;;3.17;;
14241;SDS011;7205;50.864;12.766;2022-07-06T04:23:30;3.30;;;3.10;;
14241;SDS011;7205;50.864;12.766;2022-07-06T04:25:57;3.90;;;3.60;;
14241;SDS011;7205;50.864;12.766;2022-07-06T04:28:27;4.53;;;3.47;;
14241;SDS011;7205;50.864;12.766;2022-07-06T04:30:54;4.87;;;3.20;;
14241;SDS011;7205;50.864;12.766;2022-07-06T04:33:23;4.13;;;3.30;;
14241;SDS011;7205;50.864;12.766;2022-07-06T04:35:50;5.50;;;3.13;;
14241;SDS011;7205;50.864;12.766;2022-07-06T04:38:19;3.57;;;3.10;;
14241;SDS011;7205;50.864;12.766;2022-07-06T04:40:47;3.60;;;3.30;;
14241;SDS011;7205;50.864;12.766;2022-07-06T04:43:17;7.03;;;3.07;;
14241;SDS011;7205;50.864;12.766;2022-07-06T04:45:45;3.40;;;3.20;;
14241;SDS011;7205;50.864;12.766;2022-07-06T04:48:13;4.87;;;3.70;;
14241;SDS011;7205;50.864;12.766;2022-07-06T04:50:40;6.37;;;3.90;;
14241;SDS011;7205;50.864;12.766;2022-07-06T04:53:12;3.37;;;3.00;;
14241;SDS011;7205;50.864;12.766;2022-07-06T04:55:40;5.77;;;2.90;;
14241;SDS011;7205;50.864;12.766;2022-07-06T04:58:08;4.77;;;3.07;;
14241;SDS011;7205;50.864;12.766;2022-07-06T05:00:35;8.03;;;3.37;;
14241;SDS011;7205;50.864;12.766;2022-07-06T05:03:04;3.20;;;2.90;;
14241;SDS011;7205;50.864;12.766;2022-07-06T05:05:31;3.80;;;3.03;;
14241;SDS011;7205;50.864;12.766;2022-07-06T05:07:59;6.23;;;2.93;;
14241;SDS011;7205;50.864;12.766;2022-07-06T05:10:27;3.10;;;2.90;;
14241;SDS011;7205;50.864;12.766;2022-07-06T05:12:56;2.80;;;2.60;;
14241;SDS011;7205;50.864;12.766;2022-07-06T05:15:25;3.47;;;2.80;;
14241;SDS011;7205;50.864;12.766;2022-07-06T05:17:52;6.43;;;2.67;;
14241;SDS011;7205;50.864;12.766;2022-07-06T05:20:21;2.77;;;2.57;;
14241;SDS011;7205;50.864;12.766;2022-07-06T05:22:48;4.70;;;2.33;;
14241;SDS011;7205;50.864;12.766;2022-07-06T05:25:19;6.20;;;2.50;;
14241;SDS011;7205;50.864;12.766;2022-07-06T05:27:46;2.60;;;2.40;;
14241;SDS011;7205;50.864;12.766;2022-07-06T05:30:13;2.87;;;2.60;;
14241;SDS011;7205;50.864;12.766;2022-07-06T05:32:42;2.43;;;2.30;;
14241;SDS011;7205;50.864;12.766;2022-07-06T05:35:09;3.07;;;2.17;;
14241;SDS011;7205;50.864;12.766;2022-07-06T05:37:39;2.93;;;2.10;;
14241;SDS011;7205;50.864;12.766;2022-07-06T05:40:06;2.83;;;2.43;;
14241;SDS011;7205;50.864;12.766;2022-07-06T05:42:34;5.00;;;2.30;;
14241;SDS011;7205;50.864;12.766;2022-07-06T05:45:01;6.07;;;2.10;;
14241;SDS011;7205;50.864;12.766;2022-07-06T05:47:30;3.47;;;2.43;;
14241;SDS011;7205;50.864;12.766;2022-07-06T05:50:14;2.33;;;2.13;;
14241;SDS011;7205;50.864;12.766;2022-07-06T05:52:56;7.83;;;2.20;;
14241;SDS011;7205;50.864;12.766;2022-07-06T05:55:24;4.03;;;2.00;;
14241;SDS011;7205;50.864;12.766;2022-07-06T05:57:52;1.97;;;1.77;;
14241;SDS011;7205;50.864;12.766;2022-07-06T06:00:22;4.07;;;1.70;;
14241;SDS011;7205;50.864;12.766;2022-07-06T06:02:52;4.70;;;1.70;;
14241;SDS011;7205;50.864;12.766;2022-07-06T06:05:20;3.53;;;1.43;;
14241;SDS011;7205;50.864;12.766;2022-07-06T06:07:50;3.83;;;1.57;;
14241;SDS011;7205;50.864;12.766;2022-07-06T06:10:23;6.60;;;3.83;;
14241;SDS011;7205;50.864;12.766;2022-07-06T06:12:53;3.47;;;1.63;;
14241;SDS011;7205;50.864;12.766;2022-07-06T06:15:20;5.30;;;1.70;;
14241;SDS011;7205;50.864;12.766;2022-07-06T06:17:47;2.83;;;1.53;;
14241;SDS011;7205;50.864;12.766;2022-07-06T06:20:14;3.40;;;1.60;;
14241;SDS011;7205;50.864;12.766;2022-07-06T06:22:45;5.57;;;2.20;;
14241;SDS011;7205;50.864;12.766;2022-07-06T06:25:14;3.43;;;1.70;;
14241;SDS011;7205;50.864;12.766;2022-07-06T06:27:42;1.30;;;1.20;;
14241;SDS011;7205;50.864;12.766;2022-07-06T06:30:10;3.77;;;1.57;;
14241;SDS011;7205;50.864;12.766;2022-07-06T06:32:38;1.63;;;1.23;;
14241;SDS011;7205;50.864;12.766;2022-07-06T06:35:08;2.50;;;1.70;;
14241;SDS011;7205;50.864;12.766;2022-07-06T06:37:40;1.73;;;1.60;;
14241;SDS011;7205;50.864;12.766;2022-07-06T06:40:12;1.77;;;1.20;;
14241;SDS011;7205;50.864;12.766;2022-07-06T06:42:42;2.13;;;1.40;;
14241;SDS011;7205;50.864;12.766;2022-07-06T06:45:12;2.67;;;1.30;;
14241;SDS011;7205;50.864;12.766;2022-07-06T06:47:40;2.13;;;1.43;;
14241;SDS011;7205;50.864;12.766;2022-07-06T06:50:12;4.10;;;1.23;;
14241;SDS011;7205;50.864;12.766;2022-07-06T06:52:39;2.67;;;1.10;;
14241;SDS011;7205;50.864;12.766;2022-07-06T06:55:07;2.97;;;1.40;;
14241;SDS011;7205;50.864;12.766;2022-07-06T06:57:36;2.13;;;1.03;;
14241;SDS011;7205;50.864;12.766;2022-07-06T07:00:25;2.50;;;1.30;;
14241;SDS011;7205;50.864;12.766;2022-07-06T07:02:57;2.13;;;1.30;;
14241;SDS011;7205;50.864;12.766;2022-07-06T07:05:33;1.33;;;1.23;;
14241;SDS011;7205;50.864;12.766;2022-07-06T07:08:03;3.63;;;1.30;;
14241;SDS011;7205;50.864;12.766;2022-07-06T07:10:34;2.57;;;1.70;;
14241;SDS011;7205;50.864;12.766;2022-07-06T07:13:05;2.63;;;1.37;;
14241;SDS011;7205;50.864;12.766;2022-07-06T07:15:32;3.50;;;1.53;;
14241;SDS011;7205;50.864;12.766;2022-07-06T07:17:59;2.50;;;1.40;;
14241;SDS011;7205;50.864;12.766;2022-07-06T07:20:26;1.53;;;1.10;;
14241;SDS011;7205;50.864;12.766;2022-07-06T07:22:55;3.17;;;1.43;;
14241;SDS011;7205;50.864;12.766;2022-07-06T07:25:27;3.00;;;1.33;;
14241;SDS011;7205;50.864;12.766;2022-07-06T07:27:59;2.40;;;1.53;;
14241;SDS011;7205;50.864;12.766;2022-07-06T07:30:30;2.33;;;1.50;;
14241;SDS011;7205;50.864;12.766;2022-07-06T07:32:57;2.83;;;1.13;;
14241;SDS011;7205;50.864;12.766;2022-07-06T07:35:26;5.47;;;1.20;;
14241;SDS011;7205;50.864;12.766;2022-07-06T07:37:56;2.70;;;1.50;;
14241;SDS011;7205;50.864;12.766;2022-07-06T07:40:23;4.37;;;1.30;;
14241;SDS011;7205;50.864;12.766;2022-07-06T07:42:50;2.27;;;1.23;;
14241;SDS011;7205;50.864;12.766;2022-07-06T07:45:17;2.90;;;1.10;;
14241;SDS011;7205;50.864;12.766;2022-07-06T07:47:46;1.40;;;1.00;;
14241;SDS011;7205;50.864;12.766;2022-07-06T07:50:13;3.63;;;1.20;;
14241;SDS011;7205;50.864;12.766;2022-07-06T07:52:40;3.10;;;1.27;;
14241;SDS011;7205;50.864;12.766;2022-07-06T07:55:07;1.93;;;1.17;;
14241;SDS011;7205;50.864;12.766;2022-07-06T07:57:36;1.63;;;1.20;;
14241;SDS011;7205;50.864;12.766;2022-07-06T08:00:03;1.93;;;1.20;;
14241;SDS011;7205;50.864;12.766;2022-07-06T08:02:36;2.73;;;1.07;;
14241;SDS011;7205;50.864;12.766;2022-07-06T08:05:05;1.40;;;1.03;;
14241;SDS011;7205;50.864;12.766;2022-07-06T08:07:33;1.30;;;1.20;;
14241;SDS011;7205;50.864;12.766;2022-07-06T08:10:00;1.93;;;1.10;;
14241;SDS011;7205;50.864;12.766;2022-07-06T08:12:27;1.20;;;1.10;;
14241;SDS011;7205;50.864;12.766;2022-07-06T08:14:54;2.33;;;0.90;;
14241;SDS011;7205;50.864;12.766;2022-07-06T08:17:21;3.40;;;0.70;;
14241;SDS011;7205;50.864;12.766;2022-07-06T08:19:51;2.27;;;1.10;;
14241;SDS011;7205;50.864;12.766;2022-07-06T08:22:19;2.33;;;1.23;;
14241;SDS011;7205;50.864;12.766;2022-07-06T08:24:49;1.80;;;0.80;;
14241;SDS011;7205;50.864;12.766;2022-07-06T08:27:16;1.80;;;0.80;;
14241;SDS011;7205;50.864;12.766;2022-07-06T08:29:43;1.07;;;0.73;;
14241;SDS011;7205;50.864;12.766;2022-07-06T08:32:19;1.23;;;0.80;;
14241;SDS011;7205;50.864;12.766;2022-07-06T08:38:07;1.23;;;0.90;;
14241;SDS011;7205;50.864;12.766;2022-07-06T08:40:34;2.90;;;0.93;;
14241;SDS011;7205;50.864;12.766;2022-07-06T08:46:07;3.07;;;1.30;;
14241;SDS011;7205;50.864;12.766;2022-07-06T08:49:32;1.03;;;0.77;;
14241;SDS011;7205;50.864;12.766;2022-07-06T08:52:00;2.57;;;1.60;;
14241;SDS011;7205;50.864;12.766;2022-07-06T08:54:28;2.60;;;1.07;;
14241;SDS011;7205;50.864;12.766;2022-07-06T08:56:56;2.63;;;1.10;;
14241;SDS011;7205;50.864;12.766;2022-07-06T08:59:24;3.80;;;1.10;;
14241;SDS011;7205;50.864;12.766;2022-07-06T09:01:53;2.13;;;1.83;;
14241;SDS011;7205;50.864;12.766;2022-07-06T09:04:21;1.40;;;1.13;;
14241;SDS011;7205;50.864;12.766;2022-07-06T09:06:49;3.20;;;1.20;;
14241;SDS011;7205;50.864;12.766;2022-07-06T09:09:18;2.30;;;1.30;;
14241;SDS011;7205;50.864;12.766;2022-07-06T09:11:48;2.33;;;1.20;;
14241;SDS011;7205;50.864;12.766;2022-07-06T09:14:15;2.03;;;1.50;;
14241;SDS011;7205;50.864;12.766;2022-07-06T09:16:44;2.53;;;1.37;;
14241;SDS011;7205;50.864;12.766;2022-07-06T09:19:12;4.43;;;1.10;;
14241;SDS011;7205;50.864;12.766;2022-07-06T09:21:40;2.97;;;1.17;;
14241;SDS011;7205;50.864;12.766;2022-07-06T09:24:08;2.10;;;1.27;;
14241;SDS011;7205;50.864;12.766;2022-07-06T09:26:37;4.07;;;1.60;;
14241;SDS011;7205;50.864;12.766;2022-07-06T09:29:06;2.03;;;1.40;;
14241;SDS011;7205;50.864;12.766;2022-07-06T09:31:33;1.57;;;1.30;;
14241;SDS011;7205;50.864;12.766;2022-07-06T09:34:01;1.27;;;1.17;;
14241;SDS011;7205;50.864;12.766;2022-07-06T09:36:37;2.03;;;1.47;;
14241;SDS011;7205;50.864;12.766;2022-07-06T09:39:15;2.43;;;1.60;;
14241;SDS011;7205;50.864;12.766;2022-07-06T09:41:48;1.83;;;1.40;;
14241;SDS011;7205;50.864;12.766;2022-07-06T09:44:39;2.97;;;1.67;;
14241;SDS011;7205;50.864;12.766;2022-07-06T09:47:07;3.53;;;1.40;;
14241;SDS011;7205;50.864;12.766;2022-07-06T09:49:35;6.30;;;1.50;;
14241;SDS011;7205;50.864;12.766;2022-07-06T09:52:04;4.23;;;1.90;;
14241;SDS011;7205;50.864;12.766;2022-07-06T09:54:32;1.47;;;1.37;;
14241;SDS011;7205;50.864;12.766;2022-07-06T09:57:00;2.30;;;1.40;;
14241;SDS011;7205;50.864;12.766;2022-07-06T09:59:28;4.37;;;1.70;;
14241;SDS011;7205;50.864;12.766;2022-07-06T10:01:58;2.00;;;1.43;;
14241;SDS011;7205;50.864;12.766;2022-07-06T10:04:26;2.23;;;1.20;;
14241;SDS011;7205;50.864;12.766;2022-07-06T10:06:54;2.17;;;1.30;;
14241;SDS011;7205;50.864;12.766;2022-07-06T10:09:22;3.80;;;1.43;;
14241;SDS011;7205;50.864;12.766;2022-07-06T10:11:52;3.57;;;1.30;;
14241;SDS011;7205;50.864;12.766;2022-07-06T10:14:20;6.90;;;1.10;;
14241;SDS011;7205;50.864;12.766;2022-07-06T10:16:49;2.47;;;1.60;;
14241;SDS011;7205;50.864;12.766;2022-07-06T10:19:18;1.87;;;1.63;;
14241;SDS011;7205;50.864;12.766;2022-07-06T10:21:47;3.37;;;1.47;;
14241;SDS011;7205;50.864;12.766;2022-07-06T10:24:14;6.40;;;1.30;;
14241;SDS011;7205;50.864;12.766;2022-07-06T10:26:41;3.00;;;1.50;;
14241;SDS011;7205;50.864;12.766;2022-07-06T10:29:08;2.17;;;1.30;;
14241;SDS011;7205;50.864;12.766;2022-07-06T10:31:38;6.73;;;1.33;;
14241;SDS011;7205;50.864;12.766;2022-07-06T10:34:08;1.60;;;1.30;;
14241;SDS011;7205;50.864;12.766;2022-07-06T10:36:39;5.50;;;1.67;;
14241;SDS011;7205;50.864;12.766;2022-07-06T10:39:07;2.00;;;1.37;;
14241;SDS011;7205;50.864;12.766;2022-07-06T10:41:52;1.30;;;1.20;;
14241;SDS011;7205;50.864;12.766;2022-07-06T10:44:20;1.87;;;1.37;;
14241;SDS011;7205;50.864;12.766;2022-07-06T10:46:51;2.93;;;1.30;;
14241;SDS011;7205;50.864;12.766;2022-07-06T10:49:19;2.77;;;1.10;;
14241;SDS011;7205;50.864;12.766;2022-07-06T10:51:49;3.40;;;1.77;;
14241;SDS011;7205;50.864;12.766;2022-07-06T10:54:17;1.93;;;1.27;;
14241;SDS011;7205;50.864;12.766;2022-07-06T10:56:46;4.43;;;1.63;;
14241;SDS011;7205;50.864;12.766;2022-07-06T10:59:14;2.57;;;1.17;;
14241;SDS011;7205;50.864;12.766;2022-07-06T11:04:42;5.03;;;1.23;;
14241;SDS011;7205;50.864;12.766;2022-07-06T11:07:12;1.60;;;1.30;;
14241;SDS011;7205;50.864;12.766;2022-07-06T11:09:46;1.37;;;1.00;;
14241;SDS011;7205;50.864;12.766;2022-07-06T11:12:21;3.13;;;1.10;;
14241;SDS011;7205;50.864;12.766;2022-07-06T11:14:48;4.00;;;1.27;;
14241;SDS011;7205;50.864;12.766;2022-07-06T11:17:16;6.37;;;1.30;;
14241;SDS011;7205;50.864;12.766;2022-07-06T11:19:49;2.37;;;1.20;;
14241;SDS011;7205;50.864;12.766;2022-07-06T11:22:19;2.40;;;1.33;;
14241;SDS011;7205;50.864;12.766;2022-07-06T11:24:45;1.60;;;1.50;;
14241;SDS011;7205;50.864;12.766;2022-07-06T11:27:14;1.80;;;1.37;;
14241;SDS011;7205;50.864;12.766;2022-07-06T11:29:41;2.97;;;1.07;;
14241;SDS011;7205;50.864;12.766;2022-07-06T11:32:10;4.60;;;1.10;;
14241;SDS011;7205;50.864;12.766;2022-07-06T11:34:40;1.33;;;1.10;;
14241;SDS011;7205;50.864;12.766;2022-07-06T11:37:09;2.13;;;1.23;;
14241;SDS011;7205;50.864;12.766;2022-07-06T11:39:39;2.40;;;1.10;;
14241;SDS011;7205;50.864;12.766;2022-07-06T11:42:08;1.00;;;0.80;;
14241;SDS011;7205;50.864;12.766;2022-07-06T11:44:36;3.13;;;1.30;;
14241;SDS011;7205;50.864;12.766;2022-07-06T11:47:04;2.13;;;0.80;;
14241;SDS011;7205;50.864;12.766;2022-07-06T11:49:33;1.83;;;1.40;;
14241;SDS011;7205;50.864;12.766;2022-07-06T11:52:00;2.07;;;1.10;;
14241;SDS011;7205;50.864;12.766;2022-07-06T11:54:32;3.63;;;1.40;;
14241;SDS011;7205;50.864;12.766;2022-07-06T11:57:00;3.10;;;0.90;;
14241;SDS011;7205;50.864;12.766;2022-07-06T11:59:29;3.97;;;1.30;;
14241;SDS011;7205;50.864;12.766;2022-07-06T12:01:58;3.40;;;1.00;;
14241;SDS011;7205;50.864;12.766;2022-07-06T12:04:25;1.53;;;1.00;;
14241;SDS011;7205;50.864;12.766;2022-07-06T12:06:53;2.23;;;1.33;;
14241;SDS011;7205;50.864;12.766;2022-07-06T12:09:20;2.90;;;1.20;;
14241;SDS011;7205;50.864;12.766;2022-07-06T12:11:48;2.67;;;1.23;;
14241;SDS011;7205;50.864;12.766;2022-07-06T12:14:17;3.63;;;1.10;;
14241;SDS011;7205;50.864;12.766;2022-07-06T12:16:45;3.97;;;1.20;;
14241;SDS011;7205;50.864;12.766;2022-07-06T12:19:14;2.63;;;1.10;;
14241;SDS011;7205;50.864;12.766;2022-07-06T12:21:42;2.57;;;1.00;;
14241;SDS011;7205;50.864;12.766;2022-07-06T12:24:16;4.13;;;1.00;;
14241;SDS011;7205;50.864;12.766;2022-07-06T12:26:44;2.50;;;1.10;;
14241;SDS011;7205;50.864;12.766;2022-07-06T12:29:12;2.40;;;1.00;;
14241;SDS011;7205;50.864;12.766;2022-07-06T12:31:41;1.33;;;0.90;;
14241;SDS011;7205;50.864;12.766;2022-07-06T12:34:12;1.67;;;0.93;;
14241;SDS011;7205;50.864;12.766;2022-07-06T12:36:44;2.70;;;1.10;;
14241;SDS011;7205;50.864;12.766;2022-07-06T12:39:12;2.90;;;1.13;;
14241;SDS011;7205;50.864;12.766;2022-07-06T12:41:46;5.93;;;1.20;;
14241;SDS011;7205;50.864;12.766;2022-07-06T12:44:15;2.03;;;1.10;;
14241;SDS011;7205;50.864;12.766;2022-07-06T12:46:45;4.00;;;1.10;;
14241;SDS011;7205;50.864;12.766;2022-07-06T12:49:14;2.07;;;0.93;;
14241;SDS011;7205;50.864;12.766;2022-07-06T12:51:53;4.20;;;1.10;;
14241;SDS011;7205;50.864;12.766;2022-07-06T12:54:21;3.90;;;1.50;;
14241;SDS011;7205;50.864;12.766;2022-07-06T12:56:59;3.60;;;1.20;;
14241;SDS011;7205;50.864;12.766;2022-07-06T12:59:35;1.53;;;1.10;;
14241;SDS011;7205;50.864;12.766;2022-07-06T13:02:05;4.07;;;1.10;;
14241;SDS011;7205;50.864;12.766;2022-07-06T13:04:34;1.77;;;1.00;;
14241;SDS011;7205;50.864;12.766;2022-07-06T13:07:02;1.00;;;0.90;;
14241;SDS011;7205;50.864;12.766;2022-07-06T13:09:30;1.53;;;0.90;;
14241;SDS011;7205;50.864;12.766;2022-07-06T13:11:57;2.63;;;1.20;;
14241;SDS011;7205;50.864;12.766;2022-07-06T13:14:24;4.17;;;1.30;;
14241;SDS011;7205;50.864;12.766;2022-07-06T13:16:51;2.90;;;0.97;;
14241;SDS011;7205;50.864;12.766;2022-07-06T13:19:20;2.53;;;1.07;;
14241;SDS011;7205;50.864;12.766;2022-07-06T13:21:47;1.63;;;0.97;;
14241;SDS011;7205;50.864;12.766;2022-07-06T13:24:14;1.53;;;0.83;;
14241;SDS011;7205;50.864;12.766;2022-07-06T13:26:41;2.03;;;0.80;;
14241;SDS011;7205;50.864;12.766;2022-07-06T13:29:09;0.77;;;0.77;;
14241;SDS011;7205;50.864;12.766;2022-07-06T13:31:37;1.43;;;1.10;;
14241;SDS011;7205;50.864;12.766;2022-07-06T13:34:05;3.05;;;0.90;;
14241;SDS011;7205;50.864;12.766;2022-07-06T13:36:34;5.60;;;1.10;;
14241;SDS011;7205;50.864;12.766;2022-07-06T13:39:02;2.17;;;1.00;;
14241;SDS011;7205;50.864;12.766;2022-07-06T13:41:30;1.63;;;1.08;;
14241;SDS011;7205;50.864;12.766;2022-07-06T13:43:57;2.67;;;1.10;;
14241;SDS011;7205;50.864;12.766;2022-07-06T13:46:25;2.63;;;0.80;;
14241;SDS011;7205;50.864;12.766;2022-07-06T13:48:52;1.20;;;0.90;;
14241;SDS011;7205;50.864;12.766;2022-07-06T13:51:19;2.20;;;0.65;;
14241;SDS011;7205;50.864;12.766;2022-07-06T13:53:48;2.72;;;1.60;;
14241;SDS011;7205;50.864;12.766;2022-07-06T13:56:15;2.47;;;0.88;;
14241;SDS011;7205;50.864;12.766;2022-07-06T13:58:43;2.30;;;0.83;;
14241;SDS011;7205;50.864;12.766;2022-07-06T14:01:10;1.60;;;0.70;;
14241;SDS011;7205;50.864;12.766;2022-07-06T14:03:38;0.70;;;0.60;;
14241;SDS011;7205;50.864;12.766;2022-07-06T14:06:06;2.47;;;0.87;;
14241;SDS011;7205;50.864;12.766;2022-07-06T14:08:34;0.77;;;0.70;;
14241;SDS011;7205;50.864;12.766;2022-07-06T14:11:03;1.70;;;1.20;;
14241;SDS011;7205;50.864;12.766;2022-07-06T14:13:31;0.93;;;0.90;;
14241;SDS011;7205;50.864;12.766;2022-07-06T14:15:58;0.93;;;0.70;;
14241;SDS011;7205;50.864;12.766;2022-07-06T14:18:25;1.83;;;0.80;;
14241;SDS011;7205;50.864;12.766;2022-07-06T14:20:53;2.27;;;0.67;;
14241;SDS011;7205;50.864;12.766;2022-07-06T14:23:20;0.67;;;0.63;;
14241;SDS011;7205;50.864;12.766;2022-07-06T14:25:48;4.18;;;0.90;;
14241;SDS011;7205;50.864;12.766;2022-07-06T14:28:18;3.97;;;0.83;;
14241;SDS011;7205;50.864;12.766;2022-07-06T14:30:45;1.47;;;0.80;;
14241;SDS011;7205;50.864;12.766;2022-07-06T14:33:13;1.05;;;0.80;;
14241;SDS011;7205;50.864;12.766;2022-07-06T14:35:42;5.25;;;0.90;;
14241;SDS011;7205;50.864;12.766;2022-07-06T14:38:12;1.60;;;0.85;;
14241;SDS011;7205;50.864;12.766;2022-07-06T14:40:39;2.30;;;0.80;;
14241;SDS011;7205;50.864;12.766;2022-07-06T14:43:06;1.25;;;0.60;;
14241;SDS011;7205;50.864;12.766;2022-07-06T14:45:34;0.98;;;0.50;;
14241;SDS011;7205;50.864;12.766;2022-07-06T14:48:01;2.15;;;0.80;;
14241;SDS011;7205;50.864;12.766;2022-07-06T14:50:28;5.27;;;1.00;;
14241;SDS011;7205;50.864;12.766;2022-07-06T14:52:55;2.23;;;0.73;;
14241;SDS011;7205;50.864;12.766;2022-07-06T14:55:23;4.60;;;0.85;;
14241;SDS011;7205;50.864;12.766;2022-07-06T14:57:50;3.85;;;0.60;;
14241;SDS011;7205;50.864;12.766;2022-07-06T15:00:16;3.20;;;0.75;;
14241;SDS011;7205;50.864;12.766;2022-07-06T15:02:45;3.30;;;0.88;;
14241;SDS011;7205;50.864;12.766;2022-07-06T15:05:12;2.53;;;1.00;;
14241;SDS011;7205;50.864;12.766;2022-07-06T15:07:39;3.78;;;0.88;;
14241;SDS011;7205;50.864;12.766;2022-07-06T15:10:07;1.65;;;0.70;;
14241;SDS011;7205;50.864;12.766;2022-07-06T15:12:35;1.70;;;0.63;;
14241;SDS011;7205;50.864;12.766;2022-07-06T15:15:02;1.42;;;0.65;;
14241;SDS011;7205;50.864;12.766;2022-07-06T15:17:29;0.85;;;0.50;;
14241;SDS011;7205;50.864;12.766;2022-07-06T15:19:58;1.73;;;0.63;;
14241;SDS011;7205;50.864;12.766;2022-07-06T15:22:26;3.10;;;0.90;;
14241;SDS011;7205;50.864;12.766;2022-07-06T15:24:53;1.13;;;0.90;;
14241;SDS011;7205;50.864;12.766;2022-07-06T15:27:20;1.60;;;0.60;;